Huvudsida
METAR-TAF:

METAR-TAF

Flygplatser :

Karlstad Airport

Karlstad, Sverige

latitud: 59-26-41N, longitud: 013-20-15E, höjd: 107 m

Aktuellt väderrapport

Denna rapport gjordes för 14 minuter sedan, klockan 13:20 UTC
Vind 13 kt från syd/sydost
Temperatur 16°C
Fuktighet 88%
Tryck 1004 hPa
Sikt 10 km eller mer
lätt duggregn

METAR: ESOK 171320Z AUTO 16013KT 9999 -DZ FEW011/// SCT014/// BKN017/// 16/14 Q1004

Tid: 15:34 (13:34 UTC)

Väderprognos

Denna rapport gjordes för 1 timme och 4 minuter sedan, klockan 12:30 UTC
Prognos gäller från 17 kl. 13 UTC till 17 kl. 18 UTC
Vind 12 kt från syd/sydost
Sikt 10 km eller mer
Spridda moln på en höjd av 1000 ft
Brutna moln på en höjd av 1600 ft
lätt regn, duggregn
Temporärt
från 17 kl. 13 UTC till 17 kl. 15 UTC
Brutna moln på en höjd av 1000 ft
Temporärt
från 17 kl. 15 UTC till 17 kl. 17 UTC
Brutna moln på en höjd av 800 ft

TAF: ESOK 171230Z 1713/1718 16012KT 9999 -RADZ SCT010 BKN016 TEMPO 1713/1715 BKN010 TEMPO 1715/1717 BKN008

Aktuella väderrapporter och prognoser från 4000 flygplatser (METAR- och TAF-rapporter).

De tillgängliga stationerna syns som gula och röda prickar på kartan.

För musen över prickarna för att se namnen på stationerna.

Klicka sedan för att få väderrapporter och prognoser.

För att ändra kartan: Klicka på de gröna knapparna med ett svart kors på för att zooma in; den gröna knappen med ett streck på för att zooma ut; eller på de gröna pilarna för angränsande kartor.


METAR-TAF: